Time;durP1;ratioP1;P1;durP2;ratioP2;P2;SDS_P1;SDS_P2;PMS_P1;PMS_P2;Temp;Humidity;BMP_temperature;BMP_pressure;BME280_temperature;BME280_humidity;BME280_pressure;Samples;Min_cycle;Max_cycle;Signal;HPM_P1;HPM_P2
2021/07/12 00:01:34;;;;;;;2.47;2.28;;;;;;;17.92;82.21;95547.25;5039079;28;20237;-86
2021/07/12 00:04:01;;;;;;;2.63;2.42;;;;;;;17.97;82.08;95540.56;5039592;28;20206;-84
2021/07/12 00:06:27;;;;;;;2.72;2.53;;;;;;;17.86;82.65;95535.13;5038453;28;20305;-85
2021/07/12 00:08:53;;;;;;;3.08;2.53;;;;;;;17.86;82.30;95539.53;5038457;28;20198;-86
2021/07/12 00:11:21;;;;;;;3.35;2.67;;;;;;;17.90;81.64;95532.84;5037762;28;20739;-85
2021/07/12 00:13:49;;;;;;;4.40;2.70;;;;;;;17.88;81.80;95532.31;5038051;28;20228;-83
2021/07/12 00:16:15;;;;;;;2.83;2.53;;;;;;;17.88;81.63;95532.31;5038505;28;20199;-85
2021/07/12 00:18:42;;;;;;;2.80;2.60;;;;;;;17.89;81.67;95526.09;5037843;28;20289;-85
2021/07/12 00:21:09;;;;;;;2.70;2.50;;;;;;;17.88;81.54;95525.28;5038032;28;20230;-83
2021/07/12 00:23:35;;;;;;;2.78;2.58;;;;;;;17.97;80.58;95520.53;5037883;28;20643;-84
2021/07/12 00:26:03;;;;;;;2.60;2.40;;;;;;;17.89;80.66;95518.25;5037545;28;20225;-86
2021/07/12 00:28:31;;;;;;;2.50;2.30;;;;;;;17.93;80.82;95516.78;5038318;28;20204;-85
2021/07/12 00:30:57;;;;;;;2.90;2.63;;;;;;;17.89;80.96;95515.66;5037699;28;20889;-84
2021/07/12 00:33:24;;;;;;;3.10;2.80;;;;;;;17.76;81.41;95514.03;5037310;28;20696;-86
2021/07/12 00:35:50;;;;;;;3.33;3.03;;;;;;;17.76;81.56;95510.63;5036212;28;20657;-85
2021/07/12 00:38:17;;;;;;;5.55;2.85;;;;;;;17.80;81.20;95509.97;5036359;28;20206;-84
2021/07/12 00:40:44;;;;;;;3.67;2.72;;;;;;;17.74;80.80;95510.06;5037414;28;20218;-85
2021/07/12 00:43:10;;;;;;;2.67;2.47;;;;;;;17.73;80.52;95508.47;5036551;28;20217;-86
2021/07/12 00:45:38;;;;;;;3.03;2.28;;;;;;;17.69;81.29;95504.75;5038352;28;20573;-86
2021/07/12 00:48:07;;;;;;;3.25;2.50;;;;;;;17.71;80.95;95498.25;5037794;28;20248;-86
2021/07/12 00:50:36;;;;;;;3.17;2.30;;;;;;;17.79;80.55;95502.38;5037969;28;20230;-86
2021/07/12 00:53:03;;;;;;;4.93;2.60;;;;;;;17.67;81.18;95493.75;5038974;28;20206;-86
2021/07/12 00:55:40;;;;;;;3.38;2.80;;;;;;;17.60;81.34;95488.59;5039292;28;20205;-86
2021/07/12 00:58:09;;;;;;;2.55;2.35;;;;;;;17.58;81.44;95491.41;5039880;28;20202;-85
2021/07/12 01:00:36;;;;;;;2.60;2.40;;;;;;;17.51;81.93;95490.69;5039799;28;20668;-87
2021/07/12 01:03:04;;;;;;;2.55;2.35;;;;;;;17.36;82.39;95484.31;5039352;28;20685;-86
2021/07/12 01:05:31;;;;;;;2.78;2.58;;;;;;;17.33;82.74;95482.94;5039494;28;20213;-86
2021/07/12 01:07:59;;;;;;;4.03;2.22;;;;;;;17.39;82.53;95494.28;5039169;28;20288;-86
2021/07/12 01:10:26;;;;;;;2.58;2.38;;;;;;;17.33;82.67;95493.34;5039067;28;20210;-86
2021/07/12 01:13:03;;;;;;;4.38;2.25;;;;;;;17.30;82.51;95488.63;5039368;28;20672;-86
2021/07/12 01:15:35;;;;;;;4.53;2.38;;;;;;;17.31;82.53;95477.19;5039480;28;20665;-86
2021/07/12 01:18:20;;;;;;;2.47;2.20;;;;;;;17.32;82.49;95480.59;5037072;28;20198;-86
2021/07/12 01:21:24;;;;;;;2.47;2.28;;;;;;;17.17;83.60;95486.16;5038732;28;20280;-85
2021/07/12 01:24:26;;;;;;;3.88;2.22;;;;;;;17.05;85.38;95483.53;5039249;28;20221;-86
2021/07/12 01:27:30;;;;;;;2.60;2.40;;;;;;;17.00;85.84;95482.59;5026247;28;20221;-86
2021/07/12 01:30:08;;;;;;;2.33;2.13;;;;;;;17.09;84.67;95479.47;5037539;28;20201;-86
2021/07/12 01:32:45;;;;;;;2.33;2.13;;;;;;;17.11;84.25;95487.06;5037334;28;20206;-86
2021/07/12 01:35:19;;;;;;;2.63;2.17;;;;;;;17.17;83.89;95483.56;5038648;28;20209;-84
2021/07/12 01:37:57;;;;;;;4.43;2.75;;;;;;;17.23;83.51;95482.69;5039745;28;20220;-86
2021/07/12 01:40:29;;;;;;;3.10;2.88;;;;;;;17.15;83.23;95475.19;5042465;28;20190;-86
2021/07/12 01:43:03;;;;;;;2.40;2.20;;;;;;;17.07;84.18;95468.50;5042346;28;20202;-85
2021/07/12 01:45:36;;;;;;;3.33;2.33;;;;;;;17.15;84.01;95460.38;5042634;28;20202;-86
2021/07/12 01:48:10;;;;;;;4.05;2.28;;;;;;;17.27;83.58;95463.03;5042160;28;20218;-84
2021/07/12 01:50:45;;;;;;;2.92;2.38;;;;;;;17.36;83.11;95453.88;5042061;28;20226;-86
2021/07/12 01:53:15;;;;;;;2.53;2.33;;;;;;;17.42;82.50;95457.41;5042017;28;20213;-86
2021/07/12 01:55:53;;;;;;;2.92;2.63;;;;;;;17.33;83.06;95453.53;5042488;28;20202;-86
2021/07/12 01:58:28;;;;;;;2.92;2.42;;;;;;;17.23;82.93;95446.28;5042190;28;20201;-84
2021/07/12 02:00:57;;;;;;;2.88;2.58;;;;;;;17.25;83.14;95449.44;5042434;28;20225;-83
2021/07/12 02:03:27;;;;;;;2.50;2.28;;;;;;;17.22;83.27;95439.47;5041431;28;20293;-84
2021/07/12 02:05:58;;;;;;;2.60;2.40;;;;;;;17.24;82.56;95438.25;5041098;28;20194;-86
2021/07/12 02:08:27;;;;;;;2.40;2.20;;;;;;;17.23;82.65;95430.66;5040075;28;20218;-86
2021/07/12 02:10:55;;;;;;;3.28;2.15;;;;;;;17.17;83.22;95434.13;5039691;28;20229;-86
2021/07/12 02:13:21;;;;;;;2.90;2.60;;;;;;;17.21;83.07;95435.28;5040337;28;20195;-85
2021/07/12 02:15:51;;;;;;;2.88;2.50;;;;;;;17.17;82.74;95421.91;5039476;28;20198;-87
2021/07/12 02:18:18;;;;;;;2.47;2.28;;;;;;;17.14;82.98;95418.97;5041873;28;20194;-86
2021/07/12 02:20:48;;;;;;;2.78;2.55;;;;;;;17.14;82.99;95422.34;5041292;28;20735;-86
2021/07/12 02:23:16;;;;;;;3.40;2.55;;;;;;;17.14;82.63;95422.34;5041188;28;20213;-86
2021/07/12 02:25:44;;;;;;;2.70;2.50;;;;;;;17.08;83.40;95420.66;5041398;28;20213;-87
2021/07/12 02:28:12;;;;;;;2.15;2.05;;;;;;;17.10;83.34;95408.22;5039101;28;20854;-86
2021/07/12 02:30:40;;;;;;;2.17;2.03;;;;;;;17.10;83.45;95410.03;5040795;28;20218;-86
2021/07/12 02:33:06;;;;;;;3.13;2.40;;;;;;;17.15;82.93;95404.94;5040410;28;20743;-86
2021/07/12 02:35:34;;;;;;;2.50;2.30;;;;;;;17.06;83.15;95404.47;5040643;28;20206;-86
2021/07/12 02:38:03;;;;;;;3.53;2.80;;;;;;;16.94;84.04;95403.63;5041159;28;20194;-85
2021/07/12 02:40:29;;;;;;;2.63;2.42;;;;;;;16.99;83.63;95402.97;5040822;28;20230;-86
2021/07/12 02:42:58;;;;;;;2.80;2.55;;;;;;;17.06;83.11;95407.06;5040682;28;20194;-86
2021/07/12 02:45:27;;;;;;;4.05;2.38;;;;;;;17.06;82.86;95401.88;5039928;28;20194;-86
2021/07/12 02:47:54;;;;;;;2.80;2.60;;;;;;;17.05;82.60;95404.69;5038853;28;20225;-87
2021/07/12 02:50:21;;;;;;;2.67;2.47;;;;;;;17.11;82.22;95401.22;5037925;28;20202;-84
2021/07/12 02:52:56;;;;;;;2.83;2.60;;;;;;;17.11;81.72;95396.00;5040468;28;20209;-86
2021/07/12 02:55:24;;;;;;;2.63;2.40;;;;;;;17.09;81.57;95398.03;5040515;28;20205;-86
2021/07/12 02:57:50;;;;;;;3.08;2.50;;;;;;;17.00;82.21;95404.53;5040484;28;20201;-83
2021/07/12 03:00:17;;;;;;;3.47;2.50;;;;;;;16.98;82.46;95404.75;5040697;28;20210;-85
2021/07/12 03:02:44;;;;;;;3.03;2.75;;;;;;;17.02;82.00;95405.91;5040211;28;20206;-85
2021/07/12 03:05:12;;;;;;;3.00;2.70;;;;;;;16.94;82.17;95411.41;5038421;28;20198;-84
2021/07/12 03:07:44;;;;;;;3.28;2.97;;;;;;;16.87;82.06;95410.72;5039825;28;20706;-85
2021/07/12 03:10:16;;;;;;;5.55;2.80;;;;;;;16.84;81.82;95424.16;5038239;28;20213;-86
2021/07/12 03:12:48;;;;;;;4.00;2.78;;;;;;;16.86;81.91;95415.13;5037859;28;20205;-85
2021/07/12 03:15:17;;;;;;;2.90;2.70;;;;;;;16.83;82.25;95406.97;5038700;28;20198;-86
2021/07/12 03:17:46;;;;;;;3.22;2.83;;;;;;;16.83;81.94;95402.56;5037266;28;20194;-86
2021/07/12 03:20:14;;;;;;;2.90;2.70;;;;;;;16.86;82.23;95412.53;5039933;28;20229;-86
2021/07/12 03:22:42;;;;;;;3.00;2.70;;;;;;;16.91;81.99;95409.28;5040282;28;20202;-86
2021/07/12 03:25:13;;;;;;;3.10;2.80;;;;;;;16.94;81.57;95406.22;5039539;28;20202;-86
2021/07/12 03:27:40;;;;;;;4.40;2.72;;;;;;;17.01;80.86;95408.75;5039846;28;20222;-86
2021/07/12 03:30:11;;;;;;;2.60;2.40;;;;;;;17.01;79.40;95413.94;5039880;28;20209;-86
2021/07/12 03:32:38;;;;;;;4.18;2.80;;;;;;;16.94;79.68;95414.03;5039920;28;20205;-86
2021/07/12 03:35:06;;;;;;;4.25;2.78;;;;;;;16.89;79.49;95411.31;5039459;28;20205;-87
2021/07/12 03:37:32;;;;;;;3.83;2.55;;;;;;;16.81;80.56;95417.59;5039176;28;20293;-87
2021/07/12 03:39:59;;;;;;;3.20;2.78;;;;;;;16.68;81.14;95416.97;5039557;28;20202;-86
2021/07/12 03:42:26;;;;;;;2.60;2.40;;;;;;;16.74;80.76;95416.88;5039035;28;20225;-86
2021/07/12 03:44:54;;;;;;;2.78;2.53;;;;;;;16.73;80.70;95417.91;5039534;28;20210;-86
2021/07/12 03:47:27;;;;;;;2.83;2.63;;;;;;;16.64;81.88;95418.41;5040181;28;20244;-86
2021/07/12 03:49:54;;;;;;;2.70;2.50;;;;;;;16.65;82.61;95422.59;5039300;28;20263;-85
2021/07/12 03:52:23;;;;;;;2.80;2.60;;;;;;;16.67;82.44;95418.78;5038242;28;20229;-86
2021/07/12 03:54:49;;;;;;;3.33;3.03;;;;;;;16.64;82.37;95414.00;5037140;28;20228;-86
2021/07/12 03:57:15;;;;;;;3.00;2.65;;;;;;;16.50;82.79;95405.53;5037607;28;20728;-84
2021/07/12 03:59:42;;;;;;;3.00;2.80;;;;;;;16.44;83.35;95413.41;5038979;28;20217;-86
2021/07/12 04:02:08;;;;;;;3.40;2.95;;;;;;;16.52;82.51;95413.91;5038547;28;20253;-85
2021/07/12 04:04:36;;;;;;;4.57;3.05;;;;;;;16.58;82.88;95413.03;5038551;28;20743;-85
2021/07/12 04:07:03;;;;;;;2.95;2.65;;;;;;;16.66;82.69;95409.38;5038676;28;20202;-85
2021/07/12 04:09:30;;;;;;;4.03;3.03;;;;;;;16.61;83.46;95414.41;5038670;28;20581;-84
2021/07/12 04:11:57;;;;;;;3.15;2.60;;;;;;;16.59;83.83;95411.22;5038626;28;20228;-85
2021/07/12 04:14:24;;;;;;;4.72;3.28;;;;;;;16.61;83.45;95409.19;5038699;28;20228;-84
2021/07/12 04:16:50;;;;;;;3.58;3.28;;;;;;;16.57;84.31;95403.63;5037864;28;20212;-86
2021/07/12 04:19:17;;;;;;;4.38;2.90;;;;;;;16.56;84.95;95399.44;5037694;28;20216;-86
2021/07/12 04:21:45;;;;;;;3.05;2.80;;;;;;;16.66;84.32;95393.00;5037935;28;20234;-84
2021/07/12 04:24:11;;;;;;;5.90;3.15;;;;;;;16.75;83.77;95392.44;5038519;28;20209;-86
2021/07/12 04:26:37;;;;;;;4.47;3.47;;;;;;;16.63;84.56;95389.00;5038872;28;20198;-86
2021/07/12 04:29:06;;;;;;;3.40;3.00;;;;;;;16.63;85.02;95391.63;5038519;28;20227;-85
2021/07/12 04:31:33;;;;;;;3.25;2.90;;;;;;;16.76;84.68;95382.84;5038165;28;20223;-86
2021/07/12 04:33:59;;;;;;;4.25;3.03;;;;;;;16.87;84.32;95388.13;5038126;28;20206;-85
2021/07/12 04:36:26;;;;;;;3.13;2.92;;;;;;;16.99;83.87;95388.16;5037942;28;20206;-86
2021/07/12 04:38:53;;;;;;;3.53;3.22;;;;;;;17.10;83.36;95384.00;5038605;28;20229;-83
2021/07/12 04:41:20;;;;;;;4.18;3.40;;;;;;;17.15;84.13;95379.72;5038042;28;20218;-85
2021/07/12 04:43:46;;;;;;;3.88;3.58;;;;;;;17.22;84.19;95390.03;5038726;28;20229;-84
2021/07/12 04:46:13;;;;;;;3.70;2.92;;;;;;;17.32;83.94;95392.09;5038681;28;20202;-84
2021/07/12 04:48:40;;;;;;;4.35;3.67;;;;;;;17.46;83.54;95389.06;5037345;28;20228;-84
2021/07/12 04:51:06;;;;;;;4.78;3.45;;;;;;;17.54;83.66;95390.53;5038319;28;20226;-85
2021/07/12 04:53:33;;;;;;;3.35;3.05;;;;;;;17.64;83.02;95384.81;5037946;28;20206;-87
2021/07/12 04:56:02;;;;;;;4.90;3.17;;;;;;;17.77;82.95;95379.41;5036977;28;20202;-85
2021/07/12 04:58:31;;;;;;;5.43;3.50;;;;;;;17.77;84.34;95369.78;5038117;28;20201;-86
2021/07/12 05:00:58;;;;;;;3.75;3.45;;;;;;;17.74;85.40;95366.81;5038142;28;20226;-86
2021/07/12 05:03:32;;;;;;;3.90;3.45;;;;;;;17.67;87.44;95374.75;5037280;28;20234;-85
2021/07/12 05:05:59;;;;;;;4.07;3.78;;;;;;;17.65;88.71;95374.19;5039407;28;20221;-86
2021/07/12 05:08:26;;;;;;;3.67;3.38;;;;;;;17.70;88.04;95373.53;5038008;28;20229;-86
2021/07/12 05:10:52;;;;;;;3.95;3.40;;;;;;;17.78;86.90;95378.38;5037865;28;20305;-86
2021/07/12 05:13:20;;;;;;;3.45;3.20;;;;;;;17.85;87.30;95376.47;5040275;28;20747;-86
2021/07/12 05:15:47;;;;;;;5.63;3.53;;;;;;;17.88;86.52;95381.22;5041937;28;20210;-86
2021/07/12 05:18:13;;;;;;;3.53;3.22;;;;;;;17.87;87.08;95371.81;5042302;28;20209;-86
2021/07/12 05:20:40;;;;;;;3.83;3.28;;;;;;;17.83;87.26;95379.28;5041128;28;20252;-86
2021/07/12 05:23:07;;;;;;;3.42;3.13;;;;;;;17.92;87.10;95374.53;5042800;28;20591;-86
2021/07/12 05:25:33;;;;;;;3.55;3.25;;;;;;;17.94;85.62;95386.31;5041805;28;20206;-85
2021/07/12 05:28:00;;;;;;;3.67;3.20;;;;;;;18.05;84.94;95378.72;5042246;28;20222;-86
2021/07/12 05:30:28;;;;;;;3.45;3.15;;;;;;;18.10;84.84;95390.03;5040983;28;20202;-85
2021/07/12 05:32:54;;;;;;;4.82;3.40;;;;;;;18.11;84.77;95375.97;5041610;28;20194;-86
2021/07/12 05:35:20;;;;;;;4.60;3.08;;;;;;;18.14;84.29;95377.34;5041768;28;20681;-86
2021/07/12 05:37:47;;;;;;;3.20;2.90;;;;;;;18.24;83.87;95377.56;5041066;28;20198;-84
2021/07/12 05:40:14;;;;;;;3.75;2.90;;;;;;;18.41;82.83;95380.25;5041479;28;20198;-83
2021/07/12 05:42:41;;;;;;;3.45;3.10;;;;;;;18.48;82.83;95375.69;5041757;28;20212;-84
2021/07/12 05:45:09;;;;;;;3.30;3.00;;;;;;;18.50;83.44;95376.25;5041093;28;20198;-86
2021/07/12 05:47:37;;;;;;;3.60;3.28;;;;;;;18.56;82.91;95378.75;5042385;28;20198;-86
2021/07/12 05:50:05;;;;;;;3.50;3.22;;;;;;;18.58;80.89;95375.91;5042794;28;20603;-85
2021/07/12 05:52:32;;;;;;;5.75;3.33;;;;;;;18.71;80.63;95380.88;5041745;28;20244;-85
2021/07/12 05:54:59;;;;;;;6.10;3.55;;;;;;;18.72;80.47;95379.84;5041915;28;20206;-86
2021/07/12 05:57:26;;;;;;;3.30;3.00;;;;;;;18.78;80.15;95380.75;5041218;28;20210;-84
2021/07/12 05:59:54;;;;;;;3.50;3.20;;;;;;;18.78;80.12;95370.31;5042097;28;20404;-84
2021/07/12 06:02:24;;;;;;;4.43;2.80;;;;;;;18.86;79.90;95377.75;5040730;28;20226;-86
2021/07/12 06:04:52;;;;;;;4.65;3.25;;;;;;;18.89;78.38;95369.47;5041705;28;20213;-84
2021/07/12 06:07:18;;;;;;;3.67;3.05;;;;;;;18.88;78.83;95371.28;5040858;28;20194;-85
2021/07/12 06:09:45;;;;;;;4.97;3.17;;;;;;;18.93;78.61;95358.34;5040523;28;20697;-84
2021/07/12 06:12:11;;;;;;;3.60;3.30;;;;;;;19.04;77.52;95361.94;5041024;28;20757;-85
2021/07/12 06:14:38;;;;;;;4.90;2.90;;;;;;;19.03;79.23;95355.13;5041044;28;20194;-85
2021/07/12 06:17:05;;;;;;;3.75;3.17;;;;;;;19.11;78.15;95351.34;5040842;28;20929;-85
2021/07/12 06:19:31;;;;;;;4.22;3.17;;;;;;;19.12;77.81;95355.53;5041294;28;20194;-85
2021/07/12 06:22:00;;;;;;;3.47;2.90;;;;;;;19.14;79.10;95348.25;5040345;28;20230;-85
2021/07/12 06:24:27;;;;;;;3.17;2.70;;;;;;;19.22;78.49;95348.69;5041594;28;20209;-84
2021/07/12 06:26:54;;;;;;;4.18;2.72;;;;;;;19.31;78.26;95342.03;5040577;28;20206;-86
2021/07/12 06:29:21;;;;;;;3.28;2.90;;;;;;;19.39;78.91;95345.28;5041445;28;20253;-85
2021/07/12 06:31:48;;;;;;;3.42;2.90;;;;;;;19.44;78.24;95340.13;5041228;28;20226;-85
2021/07/12 06:34:14;;;;;;;2.92;2.72;;;;;;;19.55;77.74;95347.13;5040844;28;20206;-85
2021/07/12 06:36:41;;;;;;;3.22;2.63;;;;;;;19.54;76.31;95350.75;5041305;28;20278;-86
2021/07/12 06:39:09;;;;;;;3.78;2.70;;;;;;;19.52;73.97;95350.22;5040769;28;20202;-83
2021/07/12 06:41:35;;;;;;;2.88;2.50;;;;;;;19.48;74.54;95349.84;5040410;28;20226;-82
2021/07/12 06:44:08;;;;;;;3.17;2.35;;;;;;;19.52;75.60;95345.78;5040821;28;20206;-84
2021/07/12 06:46:34;;;;;;;2.80;2.60;;;;;;;19.50;73.92;95344.44;5040039;28;20202;-85
2021/07/12 06:49:01;;;;;;;2.50;2.30;;;;;;;19.46;73.75;95344.06;5039714;28;20269;-86
2021/07/12 06:51:27;;;;;;;3.40;2.13;;;;;;;19.53;73.73;95351.78;5039213;28;20230;-83
2021/07/12 06:53:54;;;;;;;2.35;2.00;;;;;;;19.64;75.09;95337.84;5040543;28;20213;-85
2021/07/12 06:56:23;;;;;;;2.97;2.08;;;;;;;19.61;70.69;95349.59;5039300;28;20201;-85
2021/07/12 06:58:50;;;;;;;2.08;1.98;;;;;;;19.62;70.89;95342.53;5040385;28;20209;-82
2021/07/12 07:01:16;;;;;;;2.55;1.90;;;;;;;19.48;68.34;95338.63;5039356;28;20240;-86
2021/07/12 07:03:45;;;;;;;2.28;1.83;;;;;;;19.51;71.21;95338.19;5039142;28;20685;-83
2021/07/12 07:06:11;;;;;;;1.98;1.40;;;;;;;19.50;69.69;95332.16;5039753;28;20220;-85
2021/07/12 07:08:38;;;;;;;1.90;1.80;;;;;;;19.44;70.17;95330.47;5038513;28;20221;-84
2021/07/12 07:11:05;;;;;;;3.60;1.65;;;;;;;19.44;69.68;95334.88;5038666;28;20222;-86
2021/07/12 07:13:33;;;;;;;3.05;1.80;;;;;;;19.53;70.97;95323.06;5039250;28;20202;-86
2021/07/12 07:16:00;;;;;;;2.03;1.83;;;;;;;19.55;70.80;95327.03;5038393;28;20198;-84
2021/07/12 07:18:26;;;;;;;1.80;1.70;;;;;;;19.62;71.16;95312.00;5039312;28;20422;-84
2021/07/12 07:20:53;;;;;;;5.13;1.75;;;;;;;19.77;69.93;95324.47;5039023;28;20232;-85
2021/07/12 07:23:19;;;;;;;3.35;1.75;;;;;;;19.85;70.80;95310.19;5039178;28;20205;-86
2021/07/12 07:25:46;;;;;;;1.98;1.73;;;;;;;19.97;71.18;95314.28;5039513;28;20237;-85
2021/07/12 07:28:12;;;;;;;2.40;1.70;;;;;;;20.08;70.68;95319.63;5039876;28;20222;-84
2021/07/12 07:30:40;;;;;;;2.40;1.77;;;;;;;20.13;70.06;95314.47;5039324;28;20656;-85
2021/07/12 07:33:07;;;;;;;3.63;1.60;;;;;;;20.18;69.06;95315.34;5038439;28;20213;-84
2021/07/12 07:35:33;;;;;;;1.85;1.75;;;;;;;20.19;68.25;95316.94;5037834;28;20206;-83
2021/07/12 07:38:00;;;;;;;1.50;1.40;;;;;;;20.29;68.86;95311.81;5038686;28;20206;-86
2021/07/12 07:40:30;;;;;;;1.50;1.40;;;;;;;20.37;68.96;95317.69;5038868;28;20210;-84
2021/07/12 07:42:57;;;;;;;3.72;1.70;;;;;;;20.43;66.64;95316.69;5038650;28;20758;-85
2021/07/12 07:45:23;;;;;;;1.70;1.58;;;;;;;20.43;67.05;95319.31;5037803;28;20418;-85
2021/07/12 07:47:51;;;;;;;1.95;1.38;;;;;;;20.53;67.32;95304.53;5039019;28;20217;-85
2021/07/12 07:50:18;;;;;;;1.92;1.50;;;;;;;20.63;67.55;95306.44;5038895;28;20222;-86
2021/07/12 07:52:45;;;;;;;2.08;1.45;;;;;;;20.60;64.37;95302.50;5036290;28;20209;-83
2021/07/12 07:55:13;;;;;;;3.05;1.55;;;;;;;20.75;65.31;95301.88;5033015;28;20206;-84
2021/07/12 07:57:40;;;;;;;2.40;1.30;;;;;;;20.81;63.07;95298.25;5033018;28;20194;-83
2021/07/12 08:00:09;;;;;;;1.45;1.35;;;;;;;20.90;65.04;95296.78;5036139;28;20209;-85
2021/07/12 08:02:36;;;;;;;1.50;1.40;;;;;;;20.94;64.52;95295.25;5037742;28;20218;-86
2021/07/12 08:05:06;;;;;;;2.03;1.60;;;;;;;21.04;63.84;95287.50;5037397;28;20199;-86
2021/07/12 08:07:33;;;;;;;1.65;1.52;;;;;;;21.22;64.92;95293.41;5036933;28;20202;-85
2021/07/12 08:09:59;;;;;;;1.83;1.60;;;;;;;21.24;63.91;95283.50;5039137;28;20224;-84
2021/07/12 08:12:26;;;;;;;1.40;1.30;;;;;;;21.38;64.96;95295.09;5037429;28;20221;-84
2021/07/12 08:14:52;;;;;;;1.52;1.42;;;;;;;21.40;64.33;95277.31;5036712;28;20205;-84
2021/07/12 08:17:19;;;;;;;7.75;1.80;;;;;;;21.47;63.88;95267.41;5036597;28;20202;-84
2021/07/12 08:19:45;;;;;;;1.90;1.30;;;;;;;21.50;63.79;95263.50;5037711;28;20202;-86
2021/07/12 08:22:13;;;;;;;1.85;1.40;;;;;;;21.68;63.65;95258.66;5036290;28;20737;-85
2021/07/12 08:24:40;;;;;;;1.42;1.33;;;;;;;21.85;63.75;95262.91;5037549;28;20204;-85
2021/07/12 08:27:06;;;;;;;1.88;1.40;;;;;;;21.95;63.67;95262.97;5037503;28;20204;-84
2021/07/12 08:29:33;;;;;;;1.35;1.20;;;;;;;22.14;64.91;95255.47;5038314;28;20233;-86
2021/07/12 08:32:03;;;;;;;1.98;1.27;;;;;;;22.20;62.15;95257.84;5036471;28;20230;-84
2021/07/12 08:34:29;;;;;;;1.60;1.50;;;;;;;22.21;61.41;95263.88;5037723;28;20216;-84
2021/07/12 08:36:56;;;;;;;1.58;1.48;;;;;;;22.21;63.72;95266.50;5035711;28;20210;-84
2021/07/12 08:39:24;;;;;;;3.95;1.70;;;;;;;22.16;61.68;95254.16;5036056;28;20584;-86
2021/07/12 08:41:50;;;;;;;1.63;1.52;;;;;;;22.26;62.47;95259.47;5036557;28;20222;-85
2021/07/12 08:44:17;;;;;;;1.60;1.50;;;;;;;22.33;62.61;95260.00;5037207;28;20202;-85
2021/07/12 08:46:43;;;;;;;1.35;1.20;;;;;;;22.40;60.21;95250.06;5034660;28;20201;-85
2021/07/12 08:49:10;;;;;;;1.27;1.17;;;;;;;22.45;59.46;95246.66;5038395;28;20233;-83
2021/07/12 08:51:36;;;;;;;1.40;1.30;;;;;;;22.49;60.66;95245.09;5038675;28;20312;-84
2021/07/12 08:54:03;;;;;;;1.50;1.40;;;;;;;22.62;60.06;95239.34;5040774;28;20232;-85
2021/07/12 08:56:30;;;;;;;1.48;1.38;;;;;;;22.92;59.94;95228.09;5041312;28;20393;-84
2021/07/12 08:58:57;;;;;;;2.30;1.40;;;;;;;23.07;58.31;95225.50;5039740;28;20223;-86
2021/07/12 09:01:23;;;;;;;1.60;1.50;;;;;;;23.21;58.04;95220.50;5040040;28;20857;-85
2021/07/12 09:03:52;;;;;;;1.75;1.42;;;;;;;23.30;58.27;95213.63;5040459;28;20209;-83
2021/07/12 09:06:22;;;;;;;1.33;1.17;;;;;;;23.36;55.38;95219.69;5039470;28;20205;-84
2021/07/12 09:08:53;;;;;;;1.83;1.40;;;;;;;23.27;54.16;95227.31;5039352;28;20234;-84
2021/07/12 09:11:22;;;;;;;1.40;1.30;;;;;;;23.33;52.85;95218.38;5039796;28;20217;-85
2021/07/12 09:13:58;;;;;;;1.13;1.13;;;;;;;23.48;52.44;95211.50;5039846;28;20284;-84
2021/07/12 09:16:31;;;;;;;1.33;1.23;;;;;;;23.63;52.91;95216.78;5040295;28;20205;-84
2021/07/12 09:19:06;;;;;;;1.50;1.30;;;;;;;23.62;52.13;95213.34;5039404;28;20673;-85
2021/07/12 09:21:34;;;;;;;2.30;1.40;;;;;;;23.73;52.92;95204.38;5040289;28;20276;-84
2021/07/12 09:24:18;;;;;;;1.48;1.38;;;;;;;23.80;52.34;95195.41;5039789;28;20209;-85
2021/07/12 09:26:48;;;;;;;2.75;1.40;;;;;;;23.84;51.65;95202.50;5039212;28;20202;-84
2021/07/12 09:29:18;;;;;;;1.60;1.40;;;;;;;23.86;50.40;95212.75;5038815;28;20222;-83
2021/07/12 09:31:48;;;;;;;1.48;1.17;;;;;;;23.99;49.63;95206.91;5038061;28;20222;-83
2021/07/12 09:34:20;;;;;;;1.40;1.30;;;;;;;24.14;49.88;95206.06;5038995;28;20234;-82
2021/07/12 09:36:47;;;;;;;1.30;1.20;;;;;;;24.15;50.25;95218.16;5038774;28;20285;-83
2021/07/12 09:39:29;;;;;;;1.98;1.40;;;;;;;24.28;49.52;95199.94;5038203;28;20206;-85
2021/07/12 09:41:57;;;;;;;1.58;1.30;;;;;;;24.37;51.48;95211.47;5038230;28;20246;-84
2021/07/12 09:44:26;;;;;;;1.33;1.23;;;;;;;24.54;50.00;95200.59;5037483;28;20202;-83
2021/07/12 09:46:53;;;;;;;3.80;1.50;;;;;;;24.60;48.74;95204.78;5038118;28;20228;-84
2021/07/12 09:49:23;;;;;;;1.63;1.30;;;;;;;24.70;48.66;95201.25;5037604;28;20224;-85
2021/07/12 09:51:54;;;;;;;1.63;1.52;;;;;;;24.74;48.23;95195.19;5036154;28;20233;-83
2021/07/12 09:54:24;;;;;;;2.38;1.17;;;;;;;24.77;49.14;95199.13;5036676;28;20198;-83
2021/07/12 09:56:52;;;;;;;1.20;1.10;;;;;;;24.64;48.34;95197.88;5036322;28;20233;-84
2021/07/12 09:59:21;;;;;;;1.20;1.20;;;;;;;24.62;49.79;95191.34;5036163;28;20206;-84
2021/07/12 10:01:51;;;;;;;1.30;1.20;;;;;;;24.88;49.95;95187.44;5036194;28;20222;-84
2021/07/12 10:04:18;;;;;;;2.25;1.25;;;;;;;25.06;49.51;95191.25;5036232;28;20209;-83
2021/07/12 10:06:46;;;;;;;1.45;1.35;;;;;;;25.17;49.38;95187.50;5037023;28;20585;-84
2021/07/12 10:09:22;;;;;;;1.50;1.40;;;;;;;24.95;48.98;95184.53;5035618;28;20652;-84
2021/07/12 10:11:49;;;;;;;1.92;1.30;;;;;;;25.06;49.05;95188.63;5036210;28;20229;-84
2021/07/12 10:14:16;;;;;;;1.52;1.30;;;;;;;25.32;49.40;95183.91;5035520;28;20228;-84
2021/07/12 10:16:51;;;;;;;1.58;1.27;;;;;;;25.44;48.71;95179.81;5036337;28;20693;-83
2021/07/12 10:19:20;;;;;;;1.45;1.35;;;;;;;25.54;46.53;95176.31;5035573;28;20276;-83
2021/07/12 10:21:51;;;;;;;2.90;1.35;;;;;;;25.52;48.04;95177.66;5034362;28;20236;-83
2021/07/12 10:24:25;;;;;;;1.40;1.30;;;;;;;25.47;46.45;95174.00;5034304;28;20688;-84
2021/07/12 10:27:01;;;;;;;3.50;1.40;;;;;;;25.53;46.50;95174.75;5034577;28;20302;-84
2021/07/12 10:29:31;;;;;;;1.50;1.10;;;;;;;25.56;47.63;95168.13;5034508;28;20226;-83
2021/07/12 10:32:08;;;;;;;1.30;1.20;;;;;;;25.69;45.99;95155.06;5034136;28;20253;-83
2021/07/12 10:34:40;;;;;;;1.40;1.30;;;;;;;25.86;48.51;95161.72;5033688;28;20202;-83
2021/07/12 10:37:21;;;;;;;1.50;1.30;;;;;;;25.99;47.13;95161.81;5034330;28;20221;-84
2021/07/12 10:40:18;;;;;;;1.42;1.33;;;;;;;26.02;46.24;95153.31;5033857;28;20206;-84
2021/07/12 10:43:07;;;;;;;1.63;1.52;;;;;;;26.03;45.37;95154.13;5033194;28;20630;-83
2021/07/12 10:45:49;;;;;;;1.88;1.52;;;;;;;26.22;46.07;95157.53;5034015;28;20204;-84
2021/07/12 10:48:16;;;;;;;1.40;1.30;;;;;;;26.19;47.86;95141.50;5033736;28;20213;-85
2021/07/12 10:50:58;;;;;;;1.50;1.40;;;;;;;26.25;46.04;95145.63;5033211;28;20241;-84
2021/07/12 10:53:59;;;;;;;1.50;1.40;;;;;;;26.29;46.09;95139.53;5033502;28;20242;-83
2021/07/12 10:56:42;;;;;;;1.40;1.30;;;;;;;26.52;46.73;95142.38;5033444;28;20577;-85
2021/07/12 10:59:23;;;;;;;1.45;1.35;;;;;;;26.65;47.26;95137.16;5032942;28;20216;-84
2021/07/12 11:01:50;;;;;;;1.67;1.30;;;;;;;26.62;45.13;95142.22;5033310;28;20221;-83
2021/07/12 11:04:45;;;;;;;2.78;1.50;;;;;;;26.45;44.73;95125.03;5033300;28;20214;-84
2021/07/12 11:07:15;;;;;;;1.70;1.30;;;;;;;26.53;45.78;95123.63;5032785;28;20352;-84
2021/07/12 11:09:47;;;;;;;1.23;1.20;;;;;;;26.53;47.52;95125.47;5032342;28;20280;-84
2021/07/12 11:12:41;;;;;;;2.00;1.35;;;;;;;26.58;45.93;95122.72;5031670;28;20276;-84
2021/07/12 11:15:30;;;;;;;2.83;1.60;;;;;;;26.70;46.09;95120.44;5031316;28;20209;-84
2021/07/12 11:18:08;;;;;;;1.95;1.48;;;;;;;26.90;45.89;95120.09;5032838;28;20209;-83
2021/07/12 11:21:01;;;;;;;3.78;1.65;;;;;;;26.83;47.14;95131.03;5032603;28;20577;-83
2021/07/12 11:23:46;;;;;;;1.40;1.30;;;;;;;26.91;45.54;95113.75;5013246;28;20209;-83
2021/07/12 11:26:55;;;;;;;2.80;1.58;;;;;;;26.83;44.92;95123.09;5032370;28;20249;-84
2021/07/12 11:29:29;;;;;;;1.40;1.30;;;;;;;26.83;44.71;95117.81;4993878;28;20210;-83
2021/07/12 11:31:57;;;;;;;1.70;1.50;;;;;;;26.85;44.68;95114.88;5031935;28;20217;-83
2021/07/12 11:34:27;;;;;;;1.40;1.30;;;;;;;26.96;44.10;95115.50;5033197;28;20201;-84
2021/07/12 11:36:58;;;;;;;1.48;1.38;;;;;;;26.98;45.28;95108.88;5033373;28;20238;-84
2021/07/12 11:39:28;;;;;;;1.40;1.30;;;;;;;27.20;46.99;95097.66;5033410;28;20336;-85
2021/07/12 11:41:55;;;;;;;2.45;1.42;;;;;;;27.37;46.83;95105.78;5032982;28;20248;-84
2021/07/12 11:44:22;;;;;;;2.17;1.65;;;;;;;27.37;46.63;95105.00;5032606;28;20206;-83
2021/07/12 11:46:50;;;;;;;1.65;1.55;;;;;;;27.44;44.93;95111.47;5033240;28;20213;-85